Tarko-Sale, Russia
Current Conditions -  °F | °C
As of 3:30 AM on Thursday 23 Oct 2014 (Local Time) from USNN Reporting Station
Clear Clear  
Wind Chill: -6°   Ceiling: Unl
Heat Index:   Visibility: 6mi
Dew Point:   Wind: 4mph
Humidity: 85%   Direction: NA
Pressure: 29.91"   Gusts: NA
Location:  64.92°N, 77.79°E
Report Text: USNN 222230Z VRB02MPS CAVOK M16/M18 Q1013 NOSIG RMK QFE75521410262
Loading
Personal Weather Stations






























Interactive Weather Map
Tropical Storm Tracking
New forecast layout! Learn more

10-Day Weather Forecast

Advertisements
Track Severe Weather on mobile